createdAt,value
2016-05-26T00:00:15.793Z,71.71
2016-05-26T00:01:15.279Z,71.91
2016-05-26T00:02:15.235Z,71.62
2016-05-26T00:03:15.284Z,71.42
2016-05-26T00:04:15.210Z,71.52
2016-05-26T00:05:15.087Z,71.33
2016-05-26T00:06:15.200Z,71.42
2016-05-26T00:07:15.061Z,71.23
2016-05-26T00:08:15.126Z,71.42
2016-05-26T00:09:15.129Z,71.62
2016-05-26T00:10:15.116Z,71.62
2016-05-26T00:11:15.119Z,71.52
2016-05-26T00:12:15.027Z,71.81
2016-05-26T00:13:15.030Z,71.81
2016-05-26T00:14:15.003Z,71.81
2016-05-26T00:15:14.958Z,71.81
2016-05-26T00:16:14.789Z,71.62
2016-05-26T00:17:15.479Z,71.71
2016-05-26T00:18:14.966Z,71.48
2016-05-26T00:19:14.891Z,71.62
2016-05-26T00:20:14.863Z,71.62
2016-05-26T00:21:14.833Z,71.62
2016-05-26T00:22:14.680Z,71.81
2016-05-26T00:23:14.808Z,71.81
2016-05-26T00:24:14.794Z,71.81
2016-05-26T00:25:15.157Z,71.58
2016-05-26T00:26:14.706Z,71.71
2016-05-26T00:27:14.756Z,71.48
2016-05-26T00:28:14.727Z,71.71
2016-05-26T00:29:14.870Z,71.68
2016-05-26T00:30:14.748Z,71.48
2016-05-26T00:31:14.813Z,71.62
2016-05-26T00:32:15.097Z,71.68
2016-05-26T00:33:14.631Z,71.68
2016-05-26T00:34:14.525Z,72.09
2016-05-26T00:35:14.746Z,72.06
2016-05-26T00:36:14.562Z,72.34
2016-05-26T00:37:16.471Z,72.34
2016-05-26T00:38:16.082Z,72.34
2016-05-26T00:39:16.570Z,72.29
2016-05-26T00:40:15.931Z,72.25
2016-05-26T00:41:15.700Z,71.91
2016-05-26T00:42:15.765Z,72
2016-05-26T00:43:15.595Z,71.87
2016-05-26T00:44:15.880Z,71.97
2016-05-26T00:45:14.897Z,72.06
2016-05-26T00:46:15.947Z,72.16
2016-05-26T00:47:15.622Z,72.09
2016-05-26T00:48:15.781Z,72.06
2016-05-26T00:49:16.330Z,72.06
2016-05-26T00:50:15.786Z,71.97
2016-05-26T00:51:15.696Z,71.87
2016-05-26T00:52:15.744Z,72.06
2016-05-26T00:53:15.826Z,71.97
2016-05-26T00:54:15.579Z,72.16
2016-05-26T00:55:15.315Z,71.68
2016-05-26T00:56:15.724Z,71.68
2016-05-26T00:57:15.227Z,71.87
2016-05-26T00:58:15.027Z,71.77
2016-05-26T00:59:15.529Z,71.77
2016-05-26T01:00:15.579Z,71.97
2016-05-26T01:01:15.254Z,71.87
2016-05-26T01:02:14.943Z,71.68
2016-05-26T01:03:14.540Z,71.87
2016-05-26T01:04:14.871Z,71.97
2016-05-26T01:05:15.062Z,71.97
2016-05-26T01:06:15.345Z,71.87
2016-05-26T01:07:14.989Z,71.97
2016-05-26T01:08:15.537Z,71.97
2016-05-26T01:09:13.775Z,72.06
2016-05-26T01:10:13.700Z,71.97
2016-05-26T01:11:13.874Z,72.06
2016-05-26T01:12:13.706Z,71.97
2016-05-26T01:13:13.911Z,72.16
2016-05-26T01:14:13.757Z,72.16
2016-05-26T01:15:13.744Z,71.97
2016-05-26T01:16:13.606Z,71.97
2016-05-26T01:17:13.672Z,72.16
2016-05-26T01:18:13.861Z,72.16
2016-05-26T01:19:13.380Z,72.16
2016-05-26T01:20:13.508Z,72.34
2016-05-26T01:21:13.495Z,72.06
2016-05-26T01:22:13.466Z,72.34
2016-05-26T01:23:13.609Z,72.16
2016-05-26T01:24:13.394Z,72.06
2016-05-26T01:25:14.130Z,71.97
2016-05-26T01:26:13.368Z,72.06
2016-05-26T01:27:13.370Z,72.16
2016-05-26T01:28:13.435Z,72.16
2016-05-26T01:29:13.579Z,72.54
2016-05-26T01:30:13.284Z,72.54
2016-05-26T01:31:13.304Z,72.5
2016-05-26T01:32:13.602Z,72.5
2016-05-26T01:33:14.043Z,72.54
2016-05-26T01:34:13.311Z,72.16
2016-05-26T01:35:13.267Z,72.31
2016-05-26T01:36:13.020Z,72.6
2016-05-26T01:37:13.163Z,72.5
2016-05-26T01:38:13.198Z,72.54
2016-05-26T01:39:13.528Z,72.69
2016-05-26T01:40:13.124Z,72.6
2016-05-26T01:41:13.048Z,72.41
2016-05-26T01:42:13.004Z,72.6
2016-05-26T01:43:12.961Z,72.41
2016-05-26T01:44:12.994Z,72.6
2016-05-26T01:45:12.981Z,72.6
2016-05-26T01:46:12.874Z,72.6
2016-05-26T01:47:12.955Z,72.79
2016-05-26T01:48:13.192Z,72.69
2016-05-26T01:49:12.960Z,72.69
2016-05-26T01:50:13.104Z,72.88
2016-05-26T01:51:12.888Z,72.69
2016-05-26T01:52:12.656Z,72.69
2016-05-26T01:53:12.769Z,72.69
2016-05-26T01:54:12.771Z,72.5
2016-05-26T01:55:12.727Z,72.69
2016-05-26T01:56:12.683Z,72.88
2016-05-26T01:57:12.639Z,72.5
2016-05-26T01:58:12.469Z,72.69
2016-05-26T01:59:12.738Z,72.69
2016-05-26T02:00:12.568Z,72.69
2016-05-26T02:01:12.618Z,72.69
2016-05-26T02:02:12.527Z,72.79
2016-05-26T02:03:12.889Z,72.69
2016-05-26T02:04:12.454Z,72.79
2016-05-26T02:05:12.440Z,72.69
2016-05-26T02:06:12.429Z,72.69
2016-05-26T02:07:12.462Z,72.79
2016-05-26T02:08:12.418Z,72.79
2016-05-26T02:09:12.373Z,72.79
2016-05-26T02:10:12.517Z,72.69
2016-05-26T02:11:12.317Z,72.69
2016-05-26T02:12:12.334Z,72.69
2016-05-26T02:13:12.385Z,72.79
2016-05-26T02:14:12.153Z,72.79
2016-05-26T02:15:12.233Z,72.6
2016-05-26T02:16:12.252Z,72.66
2016-05-26T02:17:12.255Z,72.41
2016-05-26T02:18:12.336Z,72.5
2016-05-26T02:19:12.136Z,72.6
2016-05-26T02:20:12.169Z,72.69
2016-05-26T02:21:12.063Z,72.08
2016-05-26T02:22:12.534Z,72.5
2016-05-26T02:23:12.161Z,72.41
2016-05-26T02:24:11.852Z,72.47
2016-05-26T02:25:11.963Z,72.56
2016-05-26T02:26:11.966Z,72.47
2016-05-26T02:27:11.938Z,72.56
2016-05-26T02:28:11.956Z,73.04
2016-05-26T02:29:12.084Z,72.94
2016-05-26T02:30:12.008Z,72.66
2016-05-26T02:31:11.839Z,73.23
2016-05-26T02:32:12.092Z,72.94
2016-05-26T02:33:11.829Z,72.94
2016-05-26T02:34:11.785Z,73.04
2016-05-26T02:35:11.835Z,72.66
2016-05-26T02:36:11.806Z,73.04
2016-05-26T02:37:12.418Z,72.75
2016-05-26T02:38:11.702Z,73.04
2016-05-26T02:39:11.673Z,72.75
2016-05-26T02:40:11.489Z,72.85
2016-05-26T02:41:11.695Z,72.75
2016-05-26T02:42:11.681Z,72.66
2016-05-26T02:43:11.543Z,72.94
2016-05-26T02:44:11.765Z,72.75
2016-05-26T02:45:12.033Z,72.66
2016-05-26T02:46:11.489Z,72.75
2016-05-26T02:47:11.460Z,72.85
2016-05-26T02:48:12.463Z,72.85
2016-05-26T02:49:11.434Z,72.85
2016-05-26T02:50:11.421Z,72.94
2016-05-26T02:51:11.768Z,72.66
2016-05-26T02:52:11.786Z,72.94
2016-05-26T02:53:11.399Z,72.94
2016-05-26T02:54:11.308Z,72.94
2016-05-26T02:55:11.326Z,72.66
2016-05-26T02:56:11.124Z,73.14
2016-05-26T02:57:11.097Z,73.14
2016-05-26T02:58:11.288Z,72.75
2016-05-26T02:59:11.477Z,72.75
2016-05-26T03:00:11.199Z,73.14
2016-05-26T03:01:11.170Z,72.75
2016-05-26T03:02:11.110Z,73.14
2016-05-26T03:03:12.066Z,72.85
2016-05-26T03:04:11.303Z,72.66
2016-05-26T03:05:10.915Z,73.14
2016-05-26T03:06:11.043Z,73.14
2016-05-26T03:07:11.607Z,73.14
2016-05-26T03:08:11.440Z,73.14
2016-05-26T03:09:10.988Z,72.94
2016-05-26T03:10:11.037Z,73.23
2016-05-26T03:11:10.743Z,73.23
2016-05-26T03:12:10.950Z,73.04
2016-05-26T03:13:10.906Z,73.14
2016-05-26T03:14:10.893Z,73.23
2016-05-26T03:15:10.848Z,73.14
2016-05-26T03:16:10.789Z,73.14
2016-05-26T03:17:10.807Z,73.14
2016-05-26T03:18:11.059Z,73.14
2016-05-26T03:19:10.640Z,73.14
2016-05-26T03:20:10.721Z,73.04
2016-05-26T03:21:10.567Z,73.14
2016-05-26T03:22:10.648Z,73.14
2016-05-26T03:23:10.635Z,73.23
2016-05-26T03:24:10.591Z,73.14
2016-05-26T03:25:10.469Z,73.14
2016-05-26T03:26:10.565Z,73.14
2016-05-26T03:27:10.521Z,73.14
2016-05-26T03:28:10.493Z,72.94
2016-05-26T03:29:10.496Z,73.19
2016-05-26T03:30:10.482Z,73.14
2016-05-26T03:31:10.422Z,73.14
2016-05-26T03:32:10.425Z,73.1
2016-05-26T03:33:11.116Z,72.75
2016-05-26T03:34:10.352Z,72.94
2016-05-26T03:35:10.354Z,73.04
2016-05-26T03:36:10.327Z,73.1
2016-05-26T03:37:10.282Z,73.04
2016-05-26T03:38:10.301Z,72.91
2016-05-26T03:39:10.256Z,73.1
2016-05-26T03:40:10.243Z,73.1
2016-05-26T03:41:10.059Z,72.94
2016-05-26T03:42:10.217Z,73.77
2016-05-26T03:43:10.158Z,73.58
2016-05-26T03:44:09.973Z,73.23
2016-05-26T03:45:10.100Z,72.91
2016-05-26T03:46:10.087Z,73
2016-05-26T03:47:10.075Z,72.81
2016-05-26T03:48:10.047Z,73.1
2016-05-26T03:49:09.862Z,73
2016-05-26T03:50:10.005Z,72.91
2016-05-26T03:51:09.976Z,73
2016-05-26T03:52:09.775Z,73
2016-05-26T03:53:10.653Z,73.1
2016-05-26T03:54:09.891Z,73.1
2016-05-26T03:55:09.862Z,72.91
2016-05-26T03:56:09.880Z,73.1
2016-05-26T03:57:09.680Z,73.1
2016-05-26T03:58:09.791Z,73.1
2016-05-26T03:59:09.763Z,72.91
2016-05-26T04:00:09.610Z,73.1
2016-05-26T04:01:09.738Z,73.1
2016-05-26T04:02:09.724Z,73.1
2016-05-26T04:03:09.540Z,72.91
2016-05-26T04:04:09.668Z,73.1
2016-05-26T04:05:09.733Z,72.62
2016-05-26T04:06:09.595Z,73.1
2016-05-26T04:07:09.598Z,73
2016-05-26T04:08:09.569Z,73.58
2016-05-26T04:09:09.524Z,72.91
2016-05-26T04:10:09.527Z,73.77
2016-05-26T04:11:09.514Z,73.1
2016-05-26T04:12:09.517Z,73.58
2016-05-26T04:13:09.348Z,73.19
2016-05-26T04:14:09.413Z,73.29
2016-05-26T04:15:09.400Z,73.29
2016-05-26T04:16:09.231Z,73.29
2016-05-26T04:17:09.358Z,73.29
2016-05-26T04:18:09.174Z,73.39
2016-05-26T04:19:09.334Z,73.39
2016-05-26T04:20:09.272Z,73.39
2016-05-26T04:21:09.244Z,73.29
2016-05-26T04:22:09.231Z,73
2016-05-26T04:23:09.078Z,73.39
2016-05-26T04:24:09.175Z,73.48
2016-05-26T04:25:09.146Z,73.48
2016-05-26T04:26:09.164Z,73.39
2016-05-26T04:27:09.136Z,73.48
2016-05-26T04:28:09.107Z,73.48
2016-05-26T04:29:09.063Z,73.48
2016-05-26T04:30:09.050Z,73.48
2016-05-26T04:31:09.037Z,73.29
2016-05-26T04:32:09.008Z,73.1
2016-05-26T04:33:09.058Z,73.29
2016-05-26T04:34:08.966Z,73.19
2016-05-26T04:35:08.923Z,73.19
2016-05-26T04:36:08.925Z,73.67
2016-05-26T04:37:08.882Z,73.23
2016-05-26T04:38:08.838Z,73.29
2016-05-26T04:39:08.809Z,73.33
2016-05-26T04:40:08.796Z,73.1
2016-05-26T04:41:08.782Z,73.67
2016-05-26T04:42:08.754Z,73.23
2016-05-26T04:43:08.570Z,73.23
2016-05-26T04:44:08.697Z,73.14
2016-05-26T04:45:08.684Z,73.23
2016-05-26T04:46:08.499Z,73.52
2016-05-26T04:47:08.642Z,73.43
2016-05-26T04:48:09.020Z,73.33
2016-05-26T04:49:08.601Z,73.43
2016-05-26T04:50:08.588Z,73.43
2016-05-26T04:51:08.528Z,73.43
2016-05-26T04:52:08.515Z,73.43
2016-05-26T04:53:08.518Z,73.33
2016-05-26T04:54:08.506Z,73.14
2016-05-26T04:55:08.538Z,73.14
2016-05-26T04:56:08.464Z,72.94
2016-05-26T04:57:08.483Z,72.94
2016-05-26T04:58:08.375Z,72.75
2016-05-26T04:59:08.409Z,73.23
2016-05-26T05:00:08.333Z,73.14
2016-05-26T05:01:08.336Z,73.14
2016-05-26T05:02:08.277Z,73.14
2016-05-26T05:03:08.279Z,73.33
2016-05-26T05:04:08.235Z,73.23
2016-05-26T05:05:08.268Z,73.14
2016-05-26T05:06:08.193Z,73.14
2016-05-26T05:07:08.510Z,72.75
2016-05-26T05:08:08.246Z,72.75
2016-05-26T05:09:07.967Z,72.66
2016-05-26T05:10:08.095Z,72.66
2016-05-26T05:11:08.098Z,72.85
2016-05-26T05:12:08.054Z,72.85
2016-05-26T05:13:08.010Z,72.66
2016-05-26T05:14:07.856Z,73.04
2016-05-26T05:15:08.015Z,72.88
2016-05-26T05:16:07.955Z,72.98
2016-05-26T05:17:08.004Z,72.6
2016-05-26T05:18:07.913Z,72.5
2016-05-26T05:19:07.931Z,72.31
2016-05-26T05:20:07.872Z,72.6
2016-05-26T05:21:07.843Z,72.6
2016-05-26T05:22:07.845Z,72.69
2016-05-26T05:23:07.787Z,72.69
2016-05-26T05:24:07.773Z,72.5
2016-05-26T05:25:07.869Z,72.5
2016-05-26T05:26:07.747Z,72.5
2016-05-26T05:27:07.688Z,72.69
2016-05-26T05:28:07.691Z,72.69
2016-05-26T05:29:07.662Z,72.69
2016-05-26T05:30:07.696Z,72.69
2016-05-26T05:31:07.605Z,72.6
2016-05-26T05:32:07.623Z,72.63
2016-05-26T05:33:07.454Z,72.41
2016-05-26T05:34:07.582Z,72.44
2016-05-26T05:35:07.569Z,72.63
2016-05-26T05:36:07.477Z,72.63
2016-05-26T05:37:07.480Z,72.34
2016-05-26T05:38:07.435Z,72.73
2016-05-26T05:39:07.454Z,72.73
2016-05-26T05:40:07.301Z,72.73
2016-05-26T05:41:07.194Z,72.73
2016-05-26T05:42:07.384Z,72.63
2016-05-26T05:43:07.402Z,72.73
2016-05-26T05:44:07.311Z,72.63
2016-05-26T05:45:07.314Z,72.73
2016-05-26T05:46:07.285Z,72.54
2016-05-26T05:47:07.101Z,73.02
2016-05-26T05:48:08.135Z,72.54
2016-05-26T05:49:07.168Z,72.44
2016-05-26T05:50:07.390Z,72.73
2016-05-26T05:51:07.190Z,72.54
2016-05-26T05:52:07.333Z,72.44
2016-05-26T05:53:07.069Z,72.54
2016-05-26T05:54:07.119Z,72.58
2016-05-26T05:55:06.903Z,72.38
2016-05-26T05:56:07.016Z,72.38
2016-05-26T05:57:07.018Z,72.09
2016-05-26T05:58:07.411Z,72.48
2016-05-26T05:59:06.961Z,72.29
2016-05-26T06:00:06.791Z,72.09
2016-05-26T06:01:07.045Z,72
2016-05-26T06:02:07.203Z,72
2016-05-26T06:03:06.753Z,72
2016-05-26T06:04:06.834Z,72.38
2016-05-26T06:05:06.977Z,72.19
2016-05-26T06:06:06.683Z,72.19
2016-05-26T06:07:06.795Z,72.09
2016-05-26T06:08:06.782Z,72.09
2016-05-26T06:09:06.769Z,72
2016-05-26T06:10:06.679Z,71.91
2016-05-26T06:11:06.727Z,71.84
2016-05-26T06:12:06.652Z,72.13
2016-05-26T06:13:06.796Z,72.13
2016-05-26T06:14:06.767Z,72.13
2016-05-26T06:15:06.564Z,72.42
2016-05-26T06:16:06.426Z,71.94
2016-05-26T06:17:07.228Z,71.66
2016-05-26T06:18:06.904Z,72.03
2016-05-26T06:19:06.560Z,72.03
2016-05-26T06:20:06.484Z,71.75
2016-05-26T06:21:06.456Z,71.84
2016-05-26T06:22:06.458Z,71.84
2016-05-26T06:23:06.429Z,71.31
2016-05-26T06:24:06.385Z,71.5
2016-05-26T06:25:06.356Z,71.59
2016-05-26T06:26:06.344Z,71.4
2016-05-26T06:27:06.315Z,71.69
2016-05-26T06:28:06.317Z,71.31
2016-05-26T06:29:06.289Z,71.21
2016-05-26T06:30:06.464Z,71.11
2016-05-26T06:31:06.247Z,71.21
2016-05-26T06:32:06.188Z,71.11
2016-05-26T06:33:06.081Z,71.21
2016-05-26T06:34:06.208Z,70.92
2016-05-26T06:35:06.133Z,71.11
2016-05-26T06:36:06.135Z,70.83
2016-05-26T06:37:06.091Z,70.83
2016-05-26T06:38:06.080Z,71.25
2016-05-26T06:39:06.082Z,71.25
2016-05-26T06:40:06.038Z,71.25
2016-05-26T06:41:06.055Z,71.34
2016-05-26T06:42:05.996Z,70.86
2016-05-26T06:43:05.999Z,70.67
2016-05-26T06:44:05.986Z,70.76
2016-05-26T06:45:06.348Z,70.76
2016-05-26T06:46:05.882Z,70.86
2016-05-26T06:47:05.854Z,71.05
2016-05-26T06:48:06.309Z,70.76
2016-05-26T06:49:05.952Z,71.05
2016-05-26T06:50:07.064Z,71.44
2016-05-26T06:51:06.082Z,71.34
2016-05-26T06:52:06.210Z,71.34
2016-05-26T06:53:05.745Z,71.44
2016-05-26T06:54:05.715Z,70.9
2016-05-26T06:55:05.702Z,70.96
2016-05-26T06:56:05.690Z,70.7
2016-05-26T06:57:05.677Z,70.8
2016-05-26T06:58:05.476Z,70.19
2016-05-26T06:59:05.542Z,70.32
2016-05-26T07:00:05.622Z,70.32
2016-05-26T07:01:05.906Z,70.61
2016-05-26T07:02:05.737Z,70.8
2016-05-26T07:03:05.662Z,70.19
2016-05-26T07:04:05.492Z,70.32
2016-05-26T07:05:05.480Z,70.32
2016-05-26T07:06:05.295Z,70.32
2016-05-26T07:07:06.438Z,70.42
2016-05-26T07:08:05.425Z,70.42
2016-05-26T07:09:05.927Z,70.23
2016-05-26T07:10:05.383Z,70.42
2016-05-26T07:11:05.215Z,70.32
2016-05-26T07:12:05.310Z,70.13
2016-05-26T07:13:05.282Z,70.32
2016-05-26T07:14:05.285Z,69.93
2016-05-26T07:15:05.710Z,69.93
2016-05-26T07:16:05.306Z,70.03
2016-05-26T07:17:05.246Z,69.93
2016-05-26T07:18:05.670Z,69.93
2016-05-26T07:19:05.393Z,69.93
2016-05-26T07:20:05.130Z,70.23
2016-05-26T07:21:08.101Z,70.32
2016-05-26T07:22:05.370Z,69.65
2016-05-26T07:23:05.215Z,69.56
2016-05-26T07:24:05.031Z,69.65
2016-05-26T07:25:05.284Z,69.68
2016-05-26T07:26:04.880Z,69.97
2016-05-26T07:27:05.008Z,69.68
2016-05-26T07:28:04.964Z,69.87
2016-05-26T07:29:04.934Z,69.74
2016-05-26T07:30:05.437Z,69.68
2016-05-26T07:31:05.002Z,69.68
2016-05-26T07:32:05.130Z,69.68
2016-05-26T07:33:05.320Z,69.97
2016-05-26T07:34:04.870Z,69.97
2016-05-26T07:35:04.872Z,69.87
2016-05-26T07:36:04.672Z,69.87
2016-05-26T07:37:04.752Z,69.68
2016-05-26T07:38:04.708Z,69.87
2016-05-26T07:39:04.626Z,69.97
2016-05-26T07:40:04.950Z,69.59
2016-05-26T07:41:04.791Z,69.59
2016-05-26T07:42:05.162Z,69.65
2016-05-26T07:43:04.774Z,69.78
2016-05-26T07:44:04.771Z,69.78
2016-05-26T07:45:05.172Z,69.84
2016-05-26T07:46:04.777Z,69.68
2016-05-26T07:47:04.711Z,69.49
2016-05-26T07:48:05.595Z,69.65
2016-05-26T07:49:04.694Z,69.65
2016-05-26T07:50:04.701Z,69.59
2016-05-26T07:51:04.707Z,69.87
2016-05-26T07:52:04.838Z,69.74
2016-05-26T07:53:04.624Z,69.78
2016-05-26T07:54:04.472Z,69.87
2016-05-26T07:55:04.584Z,69.68
2016-05-26T07:56:04.558Z,69.65
2016-05-26T07:57:04.640Z,69.87
2016-05-26T07:58:04.815Z,69.59
2016-05-26T07:59:04.489Z,70.13
2016-05-26T08:00:04.461Z,70.13
2016-05-26T08:01:05.043Z,70.13
2016-05-26T08:02:04.420Z,70.03
2016-05-26T08:03:04.595Z,69.93
2016-05-26T08:04:04.379Z,69.84
2016-05-26T08:05:04.382Z,70.03
2016-05-26T08:06:04.353Z,70.32
2016-05-26T08:07:04.310Z,70.23
2016-05-26T08:08:04.296Z,69.93
2016-05-26T08:09:04.376Z,69.84
2016-05-26T08:10:04.333Z,70.13
2016-05-26T08:11:04.258Z,70.23
2016-05-26T08:12:04.229Z,70.42
2016-05-26T08:13:04.091Z,70.32
2016-05-26T08:14:04.171Z,70.51
2016-05-26T08:15:04.424Z,70.42
2016-05-26T08:16:04.271Z,70.42
2016-05-26T08:17:04.118Z,70.23
2016-05-26T08:18:04.245Z,70.23
2016-05-26T08:19:04.075Z,70.32
2016-05-26T08:20:04.048Z,70.32
2016-05-26T08:21:04.050Z,70.23
2016-05-26T08:22:04.053Z,70.23
2016-05-26T08:23:04.023Z,70.32
2016-05-26T08:24:03.964Z,70.32
2016-05-26T08:25:03.795Z,70.42
2016-05-26T08:26:03.906Z,70.32
2016-05-26T08:27:06.659Z,70.23
2016-05-26T08:28:03.866Z,70.42
2016-05-26T08:29:03.914Z,70.42
2016-05-26T08:30:03.824Z,70.13
2016-05-26T08:31:03.827Z,70.38
2016-05-26T08:32:04.969Z,70.32
2016-05-26T08:33:03.769Z,70.32
2016-05-26T08:34:03.601Z,70.32
2016-05-26T08:35:03.712Z,70.23
2016-05-26T08:36:03.715Z,70.13
2016-05-26T08:37:03.733Z,69.56
2016-05-26T08:38:04.158Z,69.84
2016-05-26T08:39:03.630Z,69.46
2016-05-26T08:40:03.445Z,69.65
2016-05-26T08:41:03.571Z,69.84
2016-05-26T08:42:06.466Z,69.65
2016-05-26T08:43:03.532Z,69.84
2016-05-26T08:44:03.534Z,69.74
2016-05-26T08:45:03.521Z,69.46
2016-05-26T08:46:03.460Z,69.74
2016-05-26T08:47:04.963Z,69.74
2016-05-26T08:48:03.685Z,69.65
2016-05-26T08:49:03.469Z,69.74
2016-05-26T08:50:03.425Z,70.03
2016-05-26T08:51:03.474Z,70.03
2016-05-26T08:52:04.056Z,69.93
2016-05-26T08:53:03.370Z,70.32
2016-05-26T08:54:03.342Z,70.42
2016-05-26T08:55:03.281Z,70.32
2016-05-26T08:56:03.112Z,70.23
2016-05-26T08:57:03.256Z,70.13
2016-05-26T08:58:03.212Z,69.9
2016-05-26T08:59:03.167Z,69.81
2016-05-26T09:00:02.998Z,70.32
2016-05-26T09:01:03.173Z,69.81
2016-05-26T09:02:05.050Z,69.9
2016-05-26T09:03:03.100Z,70.29
2016-05-26T09:04:02.916Z,70.19
2016-05-26T09:05:02.902Z,70.32
2016-05-26T09:06:02.889Z,69.84
2016-05-26T09:07:03.033Z,69.56
2016-05-26T09:08:02.848Z,69.84
2016-05-26T09:09:02.976Z,69.93
2016-05-26T09:10:02.947Z,69.84
2016-05-26T09:11:02.981Z,69.65
2016-05-26T09:12:02.905Z,69.84
2016-05-26T09:13:02.893Z,69.65
2016-05-26T09:14:02.879Z,69.93
2016-05-26T09:15:02.867Z,69.17
2016-05-26T09:16:02.838Z,68.98
2016-05-26T09:17:02.779Z,69.17
2016-05-26T09:18:02.656Z,69.07
2016-05-26T09:19:02.768Z,69.11
2016-05-26T09:20:02.568Z,68.88
2016-05-26T09:21:02.695Z,69.2
2016-05-26T09:22:02.729Z,69.17
2016-05-26T09:23:02.685Z,69.11
2016-05-26T09:24:02.626Z,69.4
2016-05-26T09:25:02.613Z,69.3
2016-05-26T09:26:02.599Z,68.82
2016-05-26T09:27:02.603Z,68.82
2016-05-26T09:28:02.636Z,68.53
2016-05-26T09:29:02.561Z,68.05
2016-05-26T09:30:02.548Z,67.96
2016-05-26T09:31:02.504Z,68.24
2016-05-26T09:32:02.834Z,68.15
2016-05-26T09:33:02.494Z,68.34
2016-05-26T09:34:02.309Z,68.57
2016-05-26T09:35:02.421Z,68.37
2016-05-26T09:36:02.361Z,68.66
2016-05-26T09:37:02.379Z,68.08
2016-05-26T09:38:02.413Z,68.28
2016-05-26T09:39:02.322Z,68.28
2016-05-26T09:40:02.247Z,68.28
2016-05-26T09:41:02.312Z,68.37
2016-05-26T09:42:02.252Z,68.08
2016-05-26T09:43:02.271Z,67.99
2016-05-26T09:44:02.054Z,68.18
2016-05-26T09:45:02.244Z,68.37
2016-05-26T09:46:02.169Z,68.18
2016-05-26T09:47:02.235Z,68.37
2016-05-26T09:48:01.971Z,68.57
2016-05-26T09:49:02.005Z,68.37
2016-05-26T09:50:02.071Z,68.41
2016-05-26T09:51:02.089Z,68.57
2016-05-26T09:52:02.060Z,67.99
2016-05-26T09:53:02.219Z,67.9
2016-05-26T09:54:02.051Z,68.12
2016-05-26T09:55:02.006Z,68.12
2016-05-26T09:56:01.993Z,68.08
2016-05-26T09:57:01.933Z,68.08
2016-05-26T09:58:01.811Z,67.8
2016-05-26T09:59:02.001Z,68.08
2016-05-26T10:00:01.926Z,68.08
2016-05-26T10:01:01.834Z,68.08
2016-05-26T10:02:01.869Z,68.37
2016-05-26T10:03:02.074Z,68.18
2016-05-26T10:04:01.842Z,67.99
2016-05-26T10:05:01.767Z,67.51
2016-05-26T10:06:05.005Z,67.61
2016-05-26T10:07:01.788Z,67.9
2016-05-26T10:08:01.713Z,67.8
2016-05-26T10:09:02.309Z,67.61
2016-05-26T10:10:01.655Z,67.51
2016-05-26T10:11:01.689Z,67.51
2016-05-26T10:12:01.630Z,67.99
2016-05-26T10:13:01.727Z,68.28
2016-05-26T10:14:01.760Z,68.08
2016-05-26T10:15:01.575Z,68.28
2016-05-26T10:16:01.407Z,67.99
2016-05-26T10:17:01.565Z,67.41
2016-05-26T10:18:01.786Z,67.32
2016-05-26T10:19:01.524Z,67.51
2016-05-26T10:20:01.338Z,67.51
2016-05-26T10:21:04.857Z,67.61
2016-05-26T10:22:01.781Z,67.51
2016-05-26T10:23:01.393Z,67.74
2016-05-26T10:24:01.537Z,67.8
2016-05-26T10:25:01.806Z,67.45
2016-05-26T10:26:01.370Z,67.64
2016-05-26T10:27:01.873Z,67.16
2016-05-26T10:28:01.251Z,67.07
2016-05-26T10:29:01.535Z,67.25
2016-05-26T10:30:01.412Z,67.25
2016-05-26T10:31:01.353Z,66.97
2016-05-26T10:32:01.839Z,66.97
2016-05-26T10:33:01.202Z,66.87
2016-05-26T10:34:02.220Z,67.16
2016-05-26T10:35:00.988Z,66.87
2016-05-26T10:36:01.475Z,67.54
2016-05-26T10:37:01.118Z,66.97
2016-05-26T10:38:01.091Z,66.58
2016-05-26T10:39:01.139Z,66.3
2016-05-26T10:40:01.439Z,66.58
2016-05-26T10:41:00.927Z,66.68
2016-05-26T10:42:01.022Z,66.33
2016-05-26T10:43:01.104Z,66.14
2016-05-26T10:44:01.512Z,66.42
2016-05-26T10:45:00.921Z,66.14
2016-05-26T10:46:00.894Z,65.84
2016-05-26T10:47:00.974Z,65.46
2016-05-26T10:48:01.071Z,65.46
2016-05-26T10:49:00.948Z,65.66
2016-05-26T10:50:00.873Z,65.2
2016-05-26T10:51:00.843Z,65.5
2016-05-26T10:52:00.816Z,65.3
2016-05-26T10:53:01.068Z,65.66
2016-05-26T10:54:00.759Z,65.56
2016-05-26T10:55:00.776Z,65.46
2016-05-26T10:56:00.779Z,65.37
2016-05-26T10:57:00.719Z,65.75
2016-05-26T10:58:00.831Z,66.23
2016-05-26T10:59:00.693Z,66.04
2016-05-26T11:00:00.634Z,65.66
2016-05-26T11:01:00.636Z,65.46
2016-05-26T11:02:00.608Z,65.94
2016-05-26T11:03:00.986Z,66.52
2016-05-26T11:04:00.691Z,66.04
2016-05-26T11:05:00.506Z,66.33
2016-05-26T11:06:00.541Z,66.52
2016-05-26T11:07:00.372Z,66.42
2016-05-26T11:08:00.452Z,66.04
2016-05-26T11:09:00.470Z,66.52
2016-05-26T11:10:00.473Z,66.42
2016-05-26T11:11:00.397Z,66.04
2016-05-26T11:12:00.432Z,66.33
2016-05-26T11:13:00.794Z,65.84
2016-05-26T11:14:00.343Z,66.14
2016-05-26T11:15:00.440Z,66.14
2016-05-26T11:16:00.504Z,66.04
2016-05-26T11:17:01.054Z,66.04
2016-05-26T11:18:00.401Z,65.84
2016-05-26T11:19:01.029Z,66.49
2016-05-26T11:20:00.391Z,66.3
2016-05-26T11:21:00.424Z,66.04
2016-05-26T11:22:00.927Z,66.33
2016-05-26T11:23:00.243Z,65.84
2016-05-26T11:24:00.635Z,66.42
2016-05-26T11:25:00.451Z,65.84
2016-05-26T11:26:00.095Z,65.66
2016-05-26T11:27:00.128Z,65.46
2016-05-26T11:28:00.037Z,65.01
2016-05-26T11:29:00.023Z,64.73
2016-05-26T11:30:00.012Z,64.05
2016-05-26T11:30:59.998Z,63.76
2016-05-26T11:32:00.017Z,63.89
2016-05-26T11:32:59.972Z,63.99
2016-05-26T11:34:00.131Z,63.22
2016-05-26T11:34:59.962Z,63.51
2016-05-26T11:35:59.950Z,63.7
2016-05-26T11:36:59.858Z,63.22
2016-05-26T11:37:59.830Z,63.6
2016-05-26T11:38:59.848Z,63.7
2016-05-26T11:39:59.835Z,63.51
2016-05-26T11:40:59.760Z,63.6
2016-05-26T11:41:59.747Z,63.54
2016-05-26T11:42:59.781Z,64.08
2016-05-26T11:43:59.736Z,64.28
2016-05-26T11:44:59.786Z,64.02
2016-05-26T11:45:59.632Z,64.08
2016-05-26T11:46:59.697Z,63.89
2016-05-26T11:47:59.779Z,63.99
2016-05-26T11:49:00.078Z,63.22
2016-05-26T11:49:59.596Z,63.25
2016-05-26T11:50:59.599Z,61.93
2016-05-26T11:51:59.540Z,61.25
2016-05-26T11:52:59.402Z,60.9
2016-05-26T11:53:59.545Z,59.87
2016-05-26T11:54:59.485Z,58.55
2016-05-26T11:55:59.331Z,58
2016-05-26T11:56:59.444Z,57.45
2016-05-26T11:57:59.446Z,57.64
2016-05-26T11:58:59.339Z,58.06
2016-05-26T11:59:59.390Z,57.54
2016-05-26T12:00:59.814Z,57.57
2016-05-26T12:01:59.675Z,57.57
2016-05-26T12:02:59.334Z,57.67
2016-05-26T12:03:59.337Z,58.64
2016-05-26T12:04:59.825Z,58.54
2016-05-26T12:05:59.327Z,59.86
2016-05-26T12:06:59.689Z,59.28
2016-05-26T12:07:59.286Z,59.28
2016-05-26T12:08:59.225Z,59.02
2016-05-26T12:09:59.104Z,58.93
2016-05-26T12:10:59.169Z,58.25
2016-05-26T12:11:59.171Z,57.6
2016-05-26T12:12:59.002Z,56.28
2016-05-26T12:13:59.099Z,55.43
2016-05-26T12:14:59.117Z,54.59
2016-05-26T12:15:59.260Z,53.94
2016-05-26T12:16:59.122Z,53.94
2016-05-26T12:17:59.062Z,54.81
2016-05-26T12:18:59.705Z,55.85
2016-05-26T12:19:59.349Z,56.14
2016-05-26T12:20:59.571Z,56.82
2016-05-26T12:21:59.135Z,57.28
2016-05-26T12:22:58.998Z,57.37
2016-05-26T12:23:58.953Z,58.89
2016-05-26T12:24:58.941Z,59.08
2016-05-26T12:25:59.177Z,60.21
2016-05-26T12:26:58.898Z,59.99
2016-05-26T12:54:08.269Z,61.55
2016-05-26T12:55:08.209Z,61.65
2016-05-26T12:56:07.930Z,61.77
2016-05-26T12:57:07.933Z,61.87
2016-05-26T12:58:07.889Z,60.61
2016-05-26T12:59:08.188Z,61
2016-05-26T13:00:07.863Z,61
2016-05-26T13:01:11.554Z,61.29
2016-05-26T13:02:07.915Z,60.8
2016-05-26T13:03:08.012Z,60.71
2016-05-26T13:04:07.765Z,61.03
2016-05-26T13:05:10.907Z,61.29
2016-05-26T13:06:07.957Z,61.96
2016-05-26T13:07:07.851Z,61.77
2016-05-26T13:08:07.525Z,61.58
2016-05-26T13:09:07.606Z,61.58
2016-05-26T13:10:07.578Z,61.68
2016-05-26T13:11:08.174Z,61.77
2016-05-26T13:12:07.536Z,61.77
2016-05-26T13:13:07.898Z,61.68
2016-05-26T13:14:08.479Z,61.48
2016-05-26T13:15:07.403Z,61.58
2016-05-26T13:16:07.609Z,61.87
2016-05-26T13:17:08.033Z,61.68
2016-05-26T13:18:07.411Z,60.8
2016-05-26T13:19:07.399Z,57.07
2016-05-26T13:20:07.447Z,57.16
2016-05-26T13:21:07.388Z,55.49
2016-05-26T13:22:07.766Z,49.54